LYBE/BEG METAR and TAF weather

Enter ICAO airport designator
Station Type Date Time Source
LYBE METAR 2022/10/04 06:00 UTC NOAA

LYBE 040600Z 26010KT CAVOK 09/08 Q1022 NOSIG


Station Type Date Time Source
LYBE Decoded METAR 2022/10/04 06:00 UTC NOAA

Beograd / Surcin, Serbia and Montenegro (LYBE) 44-49N 020-17E 99M
Oct 04, 2022 - 02:00 AM EDT / 2022.10.04 0600 UTC
Wind: from the W (260 degrees) at 12 MPH (10 KT):0
Visibility: greater than 7 mile(s):0
Temperature: 48 F (9 C)
Dew Point: 46 F (8 C)
Relative Humidity: 93%
Pressure (altimeter): 30.18 in. Hg (1022 hPa)
ob: LYBE 040600Z 26010KT CAVOK 09/08 Q1022 NOSIG
cycle: 6

Station Type Date Time Source
LYBE TAF 2022/10/04 06:21 UTC NOAA

TAF LYBE 040500Z 0406/0506 28010KT CAVOK TX16/0413Z TN08/0504Z
TEMPO 0411/0414 30020KT 5000 SHRA SCT027TCU SCT033
BECMG 0417/0419 25004KT
BECMG 0423/0501 3000 BR
TEMPO 0502/0506 0600 FG

Example: see airport list